Time,TemperatureF,DewpointF,PressureIn,WindDirection,WindDirectionDegrees,WindSpeedMPH,WindSpeedGustMPH,Humidity,HourlyPrecipIn,Conditions,Clouds,dailyrainin,SoftwareType,DateUTC
2013-01-28 00:00:00,15.4,2.1,30.42,NW,321,0.0,0.0,55,0.00,,CLR,0.00,VWS V13.01,2013-01-28 05:00:00,
2013-01-28 00:03:00,15.4,1.7,30.42,NW,321,0.0,0.0,54,0.00,,CLR,0.00,VWS V13.01,2013-01-28 05:03:00,
2013-01-28 00:04:00,15.2,1.1,30.42,NW,321,0.0,0.0,53,0.00,,CLR,0.00,VWS V13.01,2013-01-28 05:04:00,
2013-01-28 00:09:00,15.1,1.9,30.43,NW,321,0.0,0.0,55,0.00,,CLR,0.00,VWS V13.01,2013-01-28 05:09:00,
2013-01-28 00:14:00,15.0,1.8,30.42,NW,321,0.0,0.0,55,0.00,,CLR,0.00,VWS V13.01,2013-01-28 05:14:00,
2013-01-28 00:19:00,15.0,3.3,30.41,NW,321,0.0,0.0,59,0.00,,CLR,0.00,VWS V13.01,2013-01-28 05:19:00,
2013-01-28 00:24:00,15.0,3.3,30.41,NW,321,0.0,0.0,59,0.00,,CLR,0.00,VWS V13.01,2013-01-28 05:24:00,
2013-01-28 00:29:00,15.0,2.1,30.42,NW,321,0.0,0.0,56,0.00,,CLR,0.00,VWS V13.01,2013-01-28 05:29:00,
2013-01-28 00:34:00,15.1,3.0,30.42,NW,321,0.0,0.0,58,0.00,,CLR,0.00,VWS V13.01,2013-01-28 05:34:00,
2013-01-28 00:39:00,15.2,3.1,30.42,NW,321,0.0,1.0,58,0.00,,CLR,0.00,VWS V13.01,2013-01-28 05:39:00,
2013-01-28 00:44:00,15.2,3.1,30.41,NW,321,0.0,1.0,58,0.00,,CLR,0.00,VWS V13.01,2013-01-28 05:44:00,
2013-01-28 00:49:00,15.3,3.2,30.42,NW,321,0.0,1.0,58,0.00,,CLR,0.00,VWS V13.01,2013-01-28 05:49:00,
2013-01-28 00:54:00,15.3,3.5,30.42,NW,321,0.0,1.0,59,0.00,,CLR,0.00,VWS V13.01,2013-01-28 05:54:00,
2013-01-28 00:59:00,15.3,3.5,30.41,NW,321,0.0,1.0,59,0.00,,CLR,0.00,VWS V13.01,2013-01-28 05:59:00,
2013-01-28 01:04:00,15.5,3.4,30.41,WSW,257,0.0,1.0,58,0.00,,CLR,0.00,VWS V13.01,2013-01-28 06:04:00,
2013-01-28 01:10:00,15.6,3.1,30.41,WSW,257,0.0,1.0,57,0.00,,CLR,0.00,VWS V13.01,2013-01-28 06:10:00,
2013-01-28 01:15:00,15.7,3.2,30.41,WSW,257,0.0,1.0,57,0.00,,CLR,0.00,VWS V13.01,2013-01-28 06:15:00,
2013-01-28 01:20:00,15.7,3.9,30.41,WSW,257,0.0,1.0,59,0.00,,CLR,0.00,VWS V13.01,2013-01-28 06:20:00,
2013-01-28 01:25:00,15.5,4.1,30.42,WSW,257,0.0,1.0,60,0.00,,CLR,0.00,VWS V13.01,2013-01-28 06:25:00,
2013-01-28 01:30:00,15.4,4.0,30.41,WSW,257,0.0,1.0,60,0.00,,CLR,0.00,VWS V13.01,2013-01-28 06:30:00,
2013-01-28 01:35:00,15.3,3.5,30.41,WSW,257,0.0,0.0,59,0.00,,CLR,0.00,VWS V13.01,2013-01-28 06:35:00,
2013-01-28 01:40:00,15.2,3.5,30.42,WSW,257,0.0,1.0,59,0.00,,CLR,0.00,VWS V13.01,2013-01-28 06:40:00,
2013-01-28 01:45:00,15.0,2.9,30.42,WSW,257,0.0,1.0,58,0.00,,SCT100,0.00,VWS V13.01,2013-01-28 06:45:00,
2013-01-28 01:50:00,15.0,2.9,30.42,WSW,257,0.0,1.0,58,0.00,,SCT100,0.00,VWS V13.01,2013-01-28 06:50:00,
2013-01-28 01:55:00,14.9,3.2,30.42,WSW,257,0.0,1.0,59,0.00,,SCT100,0.00,VWS V13.01,2013-01-28 06:55:00,
2013-01-28 02:00:00,14.9,3.5,30.42,WSW,257,0.0,1.0,60,0.00,,SCT100,0.00,VWS V13.01,2013-01-28 07:00:00,
2013-01-28 02:05:00,14.8,4.2,30.42,WSW,257,0.0,0.0,62,0.00,,SCT100,0.00,VWS V13.01,2013-01-28 07:05:00,
2013-01-28 02:11:00,14.8,4.2,30.42,WSW,257,0.0,0.0,62,0.00,,SCT100,0.00,VWS V13.01,2013-01-28 07:11:00,
2013-01-28 02:16:00,14.9,4.2,30.42,WSW,257,0.0,0.0,62,0.00,,SCT100,0.00,VWS V13.01,2013-01-28 07:16:00,
2013-01-28 02:21:00,15.0,4.7,30.42,WSW,257,0.0,0.0,63,0.00,,SCT100,0.00,VWS V13.01,2013-01-28 07:21:00,
2013-01-28 02:26:00,15.0,5.0,30.42,WSW,257,0.0,0.0,64,0.00,,SCT100,0.00,VWS V13.01,2013-01-28 07:26:00,
2013-01-28 02:31:00,15.1,5.5,30.42,WSW,257,0.0,0.0,65,0.00,,SCT100,0.00,VWS V13.01,2013-01-28 07:31:00,
2013-01-28 02:36:00,15.2,5.6,30.41,WSW,257,0.0,0.0,65,0.00,,SCT100,0.00,VWS V13.01,2013-01-28 07:36:00,
2013-01-28 02:41:00,15.3,6.0,30.41,WSW,257,0.0,0.0,66,0.00,,SCT100,0.00,VWS V13.01,2013-01-28 07:41:00,
2013-01-28 02:46:00,15.3,6.0,30.41,WSW,257,0.0,0.0,66,0.00,,BKN090,0.00,VWS V13.01,2013-01-28 07:46:00,
2013-01-28 02:51:00,15.3,6.0,30.40,WSW,257,0.0,0.0,66,0.00,,BKN090,0.00,VWS V13.01,2013-01-28 07:51:00,
2013-01-28 02:56:00,15.2,6.2,30.40,WSW,257,0.0,0.0,67,0.00,,BKN090,0.00,VWS V13.01,2013-01-28 07:56:00,
2013-01-28 03:01:00,15.1,6.1,30.40,WSW,257,0.0,0.0,67,0.00,,BKN090,0.00,VWS V13.01,2013-01-28 08:01:00,
2013-01-28 03:06:00,14.8,5.8,30.41,WSW,257,0.0,0.0,67,0.00,,BKN090,0.00,VWS V13.01,2013-01-28 08:06:00,
2013-01-28 03:11:00,14.7,5.8,30.40,WSW,257,0.0,0.0,67,0.00,,BKN090,0.00,VWS V13.01,2013-01-28 08:11:00,
2013-01-28 03:16:00,14.6,5.7,30.40,WSW,257,0.0,0.0,67,0.00,,BKN090,0.00,VWS V13.01,2013-01-28 08:16:00,
2013-01-28 03:21:00,14.5,5.6,30.40,WSW,257,0.0,0.0,67,0.00,,BKN090,0.00,VWS V13.01,2013-01-28 08:21:00,
2013-01-28 03:26:00,14.6,5.3,30.41,WSW,257,0.0,0.0,66,0.00,,BKN090,0.00,VWS V13.01,2013-01-28 08:26:00,
2013-01-28 03:31:00,14.8,5.5,30.40,WSW,257,0.0,0.0,66,0.00,,BKN090,0.00,VWS V13.01,2013-01-28 08:31:00,
2013-01-28 03:36:00,15.0,5.7,30.40,WSW,257,0.0,0.0,66,0.00,,BKN090,0.00,VWS V13.01,2013-01-28 08:36:00,
2013-01-28 03:41:00,15.2,5.9,30.40,WSW,257,0.0,0.0,66,0.00,,BKN090,0.00,VWS V13.01,2013-01-28 08:41:00,
2013-01-28 03:46:00,15.4,6.1,30.40,WSW,257,0.0,0.0,66,0.00,,BKN120,0.00,VWS V13.01,2013-01-28 08:46:00,
2013-01-28 03:51:00,15.7,6.7,30.40,WSW,257,0.0,0.0,67,0.00,,BKN120,0.00,VWS V13.01,2013-01-28 08:51:00,
2013-01-28 03:56:00,15.8,6.5,30.39,WSW,257,0.0,0.0,66,0.00,,BKN120,0.00,VWS V13.01,2013-01-28 08:56:00,
2013-01-28 04:01:00,15.9,6.6,30.39,WSW,257,0.0,0.0,66,0.00,,BKN120,0.00,VWS V13.01,2013-01-28 09:01:00,
2013-01-28 04:06:00,16.0,6.7,30.39,WSW,257,0.0,0.0,66,0.00,,BKN120,0.00,VWS V13.01,2013-01-28 09:06:00,
2013-01-28 04:12:00,16.1,6.8,30.39,WSW,257,0.0,0.0,66,0.00,,BKN120,0.00,VWS V13.01,2013-01-28 09:12:00,
2013-01-28 04:17:00,16.3,6.9,30.39,WSW,257,0.0,0.0,66,0.00,,BKN120,0.00,VWS V13.01,2013-01-28 09:17:00,
2013-01-28 04:22:00,16.3,6.9,30.38,WSW,257,0.0,0.0,66,0.00,,BKN120,0.00,VWS V13.01,2013-01-28 09:22:00,
2013-01-28 04:27:00,16.3,6.6,30.39,WSW,257,0.0,0.0,65,0.00,,BKN120,0.00,VWS V13.01,2013-01-28 09:27:00,
2013-01-28 04:32:00,16.6,7.6,30.39,WSW,257,0.0,0.0,67,0.00,,BKN120,0.00,VWS V13.01,2013-01-28 09:32:00,
2013-01-28 04:37:00,16.7,7.7,30.38,WSW,257,0.0,0.0,67,0.00,,BKN120,0.00,VWS V13.01,2013-01-28 09:37:00,
2013-01-28 04:42:00,16.6,7.2,30.38,WSW,257,0.0,0.0,66,0.00,,BKN120,0.00,VWS V13.01,2013-01-28 09:42:00,
2013-01-28 04:47:00,16.6,7.2,30.38,WSW,257,0.0,0.0,66,0.00,,OVC065,0.00,VWS V13.01,2013-01-28 09:47:00,
2013-01-28 04:52:00,16.6,7.6,30.38,WSW,257,0.0,0.0,67,0.00,,OVC065,0.00,VWS V13.01,2013-01-28 09:52:00,
2013-01-28 04:57:00,16.5,7.1,30.38,WSW,257,0.0,0.0,66,0.00,,OVC065,0.00,VWS V13.01,2013-01-28 09:57:00,
2013-01-28 05:02:00,16.4,7.0,30.38,WSW,257,0.0,0.0,66,0.00,,OVC065,0.00,VWS V13.01,2013-01-28 10:02:00,
2013-01-28 05:07:00,16.3,6.9,30.38,WSW,257,0.0,0.0,66,0.00,,OVC065,0.00,VWS V13.01,2013-01-28 10:07:00,
2013-01-28 05:12:00,16.3,6.9,30.38,WSW,257,0.0,0.0,66,0.00,,OVC065,0.00,VWS V13.01,2013-01-28 10:12:00,
2013-01-28 05:17:00,16.3,6.9,30.39,WSW,257,0.0,0.0,66,0.00,,OVC065,0.00,VWS V13.01,2013-01-28 10:17:00,
2013-01-28 05:22:00,16.3,7.3,30.38,WSW,257,0.0,0.0,67,0.00,,OVC065,0.00,VWS V13.01,2013-01-28 10:22:00,
2013-01-28 05:28:00,16.1,7.1,30.39,WSW,257,0.0,0.0,67,0.00,,OVC065,0.00,VWS V13.01,2013-01-28 10:28:00,
2013-01-28 05:33:00,15.9,6.2,30.38,WSW,257,0.0,0.0,65,0.00,,OVC065,0.00,VWS V13.01,2013-01-28 10:33:00,
2013-01-28 05:38:00,16.1,7.1,30.38,WSW,257,0.0,0.0,67,0.00,,OVC065,0.00,VWS V13.01,2013-01-28 10:38:00,
2013-01-28 05:43:00,16.2,7.2,30.38,WSW,257,0.0,0.0,67,0.00,,OVC065,0.00,VWS V13.01,2013-01-28 10:43:00,
2013-01-28 05:48:00,16.4,7.7,30.38,WSW,257,0.0,0.0,68,0.00,,OVC060,0.00,VWS V13.01,2013-01-28 10:48:00,
2013-01-28 05:53:00,16.4,7.4,30.38,WSW,257,0.0,0.0,67,0.00,,OVC060,0.00,VWS V13.01,2013-01-28 10:53:00,
2013-01-28 05:58:00,16.7,8.0,30.38,WSW,257,0.0,0.0,68,0.00,,OVC060,0.00,VWS V13.01,2013-01-28 10:58:00,
2013-01-28 06:03:00,16.7,7.7,30.38,WSW,257,0.0,0.0,67,0.00,,OVC060,0.00,VWS V13.01,2013-01-28 11:03:00,
2013-01-28 06:08:00,16.7,7.7,30.38,WSW,257,0.0,0.0,67,0.00,,OVC060,0.00,VWS V13.01,2013-01-28 11:08:00,
2013-01-28 06:13:00,16.6,7.2,30.38,WSW,257,0.0,0.0,66,0.00,,OVC060,0.00,VWS V13.01,2013-01-28 11:13:00,
2013-01-28 06:18:00,16.6,6.9,30.38,WSW,257,0.0,0.0,65,0.00,,OVC060,0.00,VWS V13.01,2013-01-28 11:18:00,
2013-01-28 06:23:00,16.5,6.8,30.38,WSW,257,0.0,0.0,65,0.00,,OVC060,0.00,VWS V13.01,2013-01-28 11:23:00,
2013-01-28 06:28:00,16.5,6.8,30.37,WSW,257,0.0,0.0,65,0.00,,OVC060,0.00,VWS V13.01,2013-01-28 11:28:00,
2013-01-28 06:33:00,16.6,7.2,30.38,WSW,257,0.0,0.0,66,0.00,,OVC060,0.00,VWS V13.01,2013-01-28 11:33:00,
2013-01-28 06:38:00,16.7,7.7,30.38,WSW,257,0.0,0.0,67,0.00,,OVC060,0.00,VWS V13.01,2013-01-28 11:38:00,
2013-01-28 06:43:00,16.6,7.6,30.37,WSW,257,0.0,0.0,67,0.00,,OVC060,0.00,VWS V13.01,2013-01-28 11:43:00,
2013-01-28 06:48:00,16.7,8.0,30.37,WSW,257,0.0,0.0,68,0.00,,OVC055,0.00,VWS V13.01,2013-01-28 11:48:00,
2013-01-28 06:53:00,16.6,7.6,30.38,WSW,257,0.0,0.0,67,0.00,,OVC055,0.00,VWS V13.01,2013-01-28 11:53:00,
2013-01-28 06:59:00,16.6,7.6,30.37,WSW,257,0.0,0.0,67,0.00,,OVC055,0.00,VWS V13.01,2013-01-28 11:59:00,
2013-01-28 07:04:00,16.7,7.7,30.38,WSW,257,0.0,0.0,67,0.00,,OVC055,0.00,VWS V13.01,2013-01-28 12:04:00,
2013-01-28 07:09:00,16.5,7.1,30.38,WSW,257,0.0,0.0,66,0.00,,OVC055,0.00,VWS V13.01,2013-01-28 12:09:00,
2013-01-28 07:14:00,16.5,6.5,30.38,WSW,257,0.0,0.0,64,0.00,,OVC055,0.00,VWS V13.01,2013-01-28 12:14:00,
2013-01-28 07:19:00,16.6,6.9,30.38,WSW,257,0.0,0.0,65,0.00,,OVC055,0.00,VWS V13.01,2013-01-28 12:19:00,
2013-01-28 07:24:00,16.6,6.9,30.38,WSW,257,0.0,0.0,65,0.00,,OVC055,0.00,VWS V13.01,2013-01-28 12:24:00,
2013-01-28 07:29:00,16.7,7.0,30.37,WSW,257,0.0,0.0,65,0.00,,OVC055,0.00,VWS V13.01,2013-01-28 12:29:00,
2013-01-28 07:34:00,16.8,6.8,30.38,WSW,257,0.0,0.0,64,0.00,,OVC055,0.00,VWS V13.01,2013-01-28 12:34:00,
2013-01-28 07:39:00,17.1,7.4,30.37,WSW,257,0.0,0.0,65,0.00,,OVC055,0.00,VWS V13.01,2013-01-28 12:39:00,
2013-01-28 07:44:00,17.3,8.2,30.38,WSW,257,0.0,0.0,67,0.00,,OVC055,0.00,VWS V13.01,2013-01-28 12:44:00,
2013-01-28 07:49:00,17.3,7.6,30.38,WSW,257,0.0,0.0,65,0.00,,BKN250,0.00,VWS V13.01,2013-01-28 12:49:00,
2013-01-28 07:54:00,17.6,7.5,30.38,WSW,257,1.0,1.0,64,0.00,,BKN250,0.00,VWS V13.01,2013-01-28 12:54:00,
2013-01-28 07:59:00,17.9,7.4,30.38,WSW,257,0.0,1.0,63,0.00,,BKN250,0.00,VWS V13.01,2013-01-28 12:59:00,
2013-01-28 08:04:00,18.1,7.3,30.38,WSW,257,0.0,0.0,62,0.00,,BKN250,0.00,VWS V13.01,2013-01-28 13:04:00,
2013-01-28 08:09:00,18.4,7.6,30.38,WSW,257,0.0,1.0,62,0.00,,BKN250,0.00,VWS V13.01,2013-01-28 13:09:00,
2013-01-28 08:14:00,18.6,7.4,30.38,WSW,257,0.0,1.0,61,0.00,,BKN250,0.00,VWS V13.01,2013-01-28 13:14:00,
2013-01-28 08:19:00,18.9,8.1,30.38,WSW,257,0.0,1.0,62,0.00,,BKN250,0.00,VWS V13.01,2013-01-28 13:19:00,
2013-01-28 08:24:00,19.3,7.7,30.38,WSW,257,0.0,1.0,60,0.00,,BKN250,0.00,VWS V13.01,2013-01-28 13:24:00,
2013-01-28 08:29:00,19.7,7.3,30.37,WSW,257,0.0,1.0,58,0.00,,BKN250,0.00,VWS V13.01,2013-01-28 13:29:00,
2013-01-28 08:34:00,19.9,7.1,30.37,WSW,257,0.0,1.0,57,0.00,,BKN250,0.00,VWS V13.01,2013-01-28 13:34:00,
2013-01-28 08:39:00,20.2,7.8,30.37,WSW,257,0.0,1.0,58,0.00,,BKN250,0.00,VWS V13.01,2013-01-28 13:39:00,
2013-01-28 08:44:00,20.6,7.0,30.37,WSW,257,0.0,1.0,55,0.00,,BKN250,0.00,VWS V13.01,2013-01-28 13:44:00,
2013-01-28 08:49:00,20.9,7.3,30.37,WSW,257,0.0,1.0,55,0.00,,BKN250,0.00,VWS V13.01,2013-01-28 13:49:00,
2013-01-28 08:54:00,21.2,6.8,30.37,WSW,257,0.0,1.0,53,0.00,,BKN250,0.00,VWS V13.01,2013-01-28 13:54:00,
2013-01-28 08:59:00,21.5,6.6,30.37,WSW,257,0.0,1.0,52,0.00,,BKN250,0.00,VWS V13.01,2013-01-28 13:59:00,
2013-01-28 09:04:00,21.8,7.3,30.37,WSW,257,0.0,2.0,53,0.00,,BKN250,0.00,VWS V13.01,2013-01-28 14:04:00,
2013-01-28 09:09:00,22.1,7.2,30.37,WSW,257,0.0,2.0,52,0.00,,BKN250,0.00,VWS V13.01,2013-01-28 14:09:00,
2013-01-28 09:14:00,22.4,7.0,30.37,WSW,257,0.0,2.0,51,0.00,,BKN250,0.00,VWS V13.01,2013-01-28 14:14:00,
2013-01-28 09:19:00,22.6,7.2,30.37,WSW,257,0.0,2.0,51,0.00,,BKN250,0.00,VWS V13.01,2013-01-28 14:19:00,
2013-01-28 09:24:00,22.9,7.1,30.37,WSW,257,0.0,2.0,50,0.00,,BKN250,0.00,VWS V13.01,2013-01-28 14:24:00,
2013-01-28 09:29:00,23.0,6.7,30.37,WSW,257,0.0,2.0,49,0.00,,BKN250,0.00,VWS V13.01,2013-01-28 14:29:00,
2013-01-28 09:35:00,23.3,7.0,30.37,WSW,257,0.0,0.0,49,0.00,,BKN250,0.00,VWS V13.01,2013-01-28 14:35:00,
2013-01-28 09:40:00,23.5,7.2,30.37,WSW,257,0.0,1.0,49,0.00,,BKN250,0.00,VWS V13.01,2013-01-28 14:40:00,
2013-01-28 09:45:00,23.7,7.3,30.37,WSW,257,1.0,2.0,49,0.00,,BKN080,0.00,VWS V13.01,2013-01-28 14:45:00,
2013-01-28 09:50:00,23.9,6.1,30.36,WSW,257,0.0,2.0,46,0.00,,BKN080,0.00,VWS V13.01,2013-01-28 14:50:00,
2013-01-28 09:55:00,24.0,6.2,30.36,WSW,257,0.0,2.0,46,0.00,,BKN080,0.00,VWS V13.01,2013-01-28 14:55:00,
2013-01-28 10:00:00,24.3,7.0,30.36,WSW,257,0.0,2.0,47,0.00,,BKN080,0.00,VWS V13.01,2013-01-28 15:00:00,
2013-01-28 10:05:00,24.6,7.3,30.36,WSW,257,1.0,1.0,47,0.00,,BKN080,0.00,VWS V13.01,2013-01-28 15:05:00,
2013-01-28 10:10:00,24.9,7.1,30.36,WSW,257,0.0,1.0,46,0.00,,BKN080,0.00,VWS V13.01,2013-01-28 15:10:00,
2013-01-28 10:15:00,25.1,7.7,30.36,WSW,257,0.0,1.0,47,0.00,,BKN080,0.00,VWS V13.01,2013-01-28 15:15:00,
2013-01-28 10:20:00,25.3,7.9,30.36,WSW,257,0.0,1.0,47,0.00,,BKN080,0.00,VWS V13.01,2013-01-28 15:20:00,
2013-01-28 10:25:00,25.4,7.5,30.35,WSW,257,0.0,1.0,46,0.00,,BKN080,0.00,VWS V13.01,2013-01-28 15:25:00,
2013-01-28 10:30:00,25.6,7.2,30.35,WSW,257,0.0,1.0,45,0.00,,BKN080,0.00,VWS V13.01,2013-01-28 15:30:00,
2013-01-28 10:36:00,25.7,6.8,30.35,WSW,257,0.0,2.0,44,0.00,,BKN080,0.00,VWS V13.01,2013-01-28 15:36:00,
2013-01-28 10:41:00,25.8,6.4,30.34,WSW,257,0.0,2.0,43,0.00,,BKN080,0.00,VWS V13.01,2013-01-28 15:41:00,
2013-01-28 10:46:00,25.9,7.5,30.34,WSW,257,0.0,2.0,45,0.00,,OVC075,0.00,VWS V13.01,2013-01-28 15:46:00,
2013-01-28 10:51:00,26.0,7.1,30.33,WSW,254,0.0,3.0,44,0.00,,OVC075,0.00,VWS V13.01,2013-01-28 15:51:00,
2013-01-28 10:56:00,26.2,7.8,30.33,WSW,254,0.0,3.0,45,0.00,,OVC075,0.00,VWS V13.01,2013-01-28 15:56:00,
2013-01-28 11:01:00,26.3,7.4,30.33,WSW,254,1.0,3.0,44,0.00,,OVC075,0.00,VWS V13.01,2013-01-28 16:01:00,
2013-01-28 11:06:00,26.5,7.6,30.32,WSW,254,0.0,1.0,44,0.00,,OVC075,0.00,VWS V13.01,2013-01-28 16:06:00,
2013-01-28 11:11:00,26.6,7.6,30.32,SSE,155,0.0,2.0,44,0.00,,OVC075,0.00,VWS V13.01,2013-01-28 16:11:00,
2013-01-28 11:16:00,26.8,7.3,30.32,SSE,155,0.0,2.0,43,0.00,,OVC075,0.00,VWS V13.01,2013-01-28 16:16:00,
2013-01-28 11:21:00,27.0,8.0,30.31,SSE,155,0.0,2.0,44,0.00,,OVC075,0.00,VWS V13.01,2013-01-28 16:21:00,
2013-01-28 11:26:00,27.3,8.3,30.31,SSE,155,1.0,2.0,44,0.00,,OVC075,0.00,VWS V13.01,2013-01-28 16:26:00,
2013-01-28 11:31:00,27.5,7.9,30.31,SW,218,1.0,3.0,43,0.00,,OVC075,0.00,VWS V13.01,2013-01-28 16:31:00,
2013-01-28 11:36:00,27.5,7.9,30.31,WSW,240,1.0,3.0,43,0.00,,OVC075,0.00,VWS V13.01,2013-01-28 16:36:00,
2013-01-28 11:41:00,27.6,8.0,30.31,SSW,210,0.0,3.0,43,0.00,,OVC075,0.00,VWS V13.01,2013-01-28 16:41:00,
2013-01-28 11:46:00,27.7,7.6,30.30,SSW,213,0.0,3.0,42,0.00,,OVC065,0.00,VWS V13.01,2013-01-28 16:46:00,
2013-01-28 11:51:00,27.8,8.2,30.30,SSW,201,2.0,3.0,43,0.00,,OVC065,0.00,VWS V13.01,2013-01-28 16:51:00,
2013-01-28 11:57:00,27.8,8.7,30.29,SW,236,2.0,3.0,44,0.00,,OVC065,0.00,VWS V13.01,2013-01-28 16:57:00,
2013-01-28 12:02:00,27.8,7.7,30.28,WSW,244,0.0,1.0,42,0.00,,OVC065,0.00,VWS V13.01,2013-01-28 17:02:00,
2013-01-28 12:07:00,27.7,7.1,30.27,West,261,0.0,3.0,41,0.00,,OVC065,0.00,VWS V13.01,2013-01-28 17:07:00,
2013-01-28 12:12:00,27.7,6.5,30.26,West,261,0.0,3.0,40,0.00,,OVC065,0.00,VWS V13.01,2013-01-28 17:12:00,
2013-01-28 12:17:00,27.8,7.7,30.27,West,261,0.0,3.0,42,0.00,,OVC065,0.00,VWS V13.01,2013-01-28 17:17:00,
2013-01-28 12:22:00,27.9,7.3,30.27,West,261,1.0,3.0,41,0.00,,OVC065,0.00,VWS V13.01,2013-01-28 17:22:00,
2013-01-28 12:27:00,28.0,8.4,30.28,West,261,1.0,3.0,43,0.00,,OVC065,0.00,VWS V13.01,2013-01-28 17:27:00,
2013-01-28 12:32:00,28.1,8.0,30.27,West,261,0.0,1.0,42,0.00,,OVC065,0.00,VWS V13.01,2013-01-28 17:32:00,
2013-01-28 12:37:00,28.2,8.1,30.27,West,261,0.0,1.0,42,0.00,,OVC065,0.00,VWS V13.01,2013-01-28 17:37:00,
2013-01-28 12:42:00,28.4,8.2,30.26,West,261,0.0,2.0,42,0.00,,OVC065,0.00,VWS V13.01,2013-01-28 17:42:00,
2013-01-28 12:47:00,28.5,8.9,30.25,West,261,0.0,2.0,43,0.00,,OVC075,0.00,VWS V13.01,2013-01-28 17:47:00,
2013-01-28 12:52:00,28.8,8.6,30.25,WSW,252,0.0,2.0,42,0.00,,OVC075,0.00,VWS V13.01,2013-01-28 17:52:00,
2013-01-28 12:57:00,28.8,8.6,30.24,WSW,252,0.0,2.0,42,0.00,,OVC075,0.00,VWS V13.01,2013-01-28 17:57:00,
2013-01-28 13:02:00,28.8,8.6,30.25,WSW,252,0.0,0.0,42,0.00,,OVC075,0.00,VWS V13.01,2013-01-28 18:02:00,
2013-01-28 13:07:00,28.8,8.1,30.24,WSW,252,0.0,2.0,41,0.00,,OVC075,0.00,VWS V13.01,2013-01-28 18:07:00,
2013-01-28 13:12:00,28.9,8.2,30.23,WSW,252,0.0,4.0,41,0.00,,OVC075,0.00,VWS V13.01,2013-01-28 18:12:00,
2013-01-28 13:17:00,29.1,8.4,30.23,WSW,252,0.0,4.0,41,0.00,,OVC075,0.00,VWS V13.01,2013-01-28 18:17:00,
2013-01-28 13:22:00,29.2,9.0,30.22,WSW,252,2.0,4.0,42,0.00,,OVC075,0.00,VWS V13.01,2013-01-28 18:22:00,
2013-01-28 13:27:00,29.2,8.4,30.22,WSW,248,1.0,4.0,41,0.00,,OVC075,0.00,VWS V13.01,2013-01-28 18:27:00,
2013-01-28 13:32:00,29.2,10.5,30.22,West,265,1.0,3.0,45,0.00,,OVC075,0.00,VWS V13.01,2013-01-28 18:32:00,
2013-01-28 13:37:00,29.0,11.3,30.21,West,274,2.0,10.0,47,0.00,,OVC075,0.00,VWS V13.01,2013-01-28 18:37:00,
2013-01-28 13:42:00,28.8,12.1,30.21,SW,221,2.0,10.0,49,0.00,,OVC075,0.00,VWS V13.01,2013-01-28 18:42:00,
2013-01-28 13:47:00,28.6,13.2,30.20,SW,223,0.0,10.0,52,0.00,,OVC070,0.00,VWS V13.01,2013-01-28 18:47:00,
2013-01-28 13:52:00,28.4,13.5,30.19,WSW,252,1.0,10.0,53,0.00,,OVC070,0.00,VWS V13.01,2013-01-28 18:52:00,
2013-01-28 13:57:00,28.3,13.8,30.19,SW,234,1.0,10.0,54,0.00,,OVC070,0.00,VWS V13.01,2013-01-28 18:57:00,
2013-01-28 14:02:00,28.1,14.0,30.19,SE,145,0.0,4.0,55,0.00,,OVC070,0.00,VWS V13.01,2013-01-28 19:02:00,
2013-01-28 14:07:00,28.0,14.8,30.18,WSW,246,0.0,6.0,57,0.00,,OVC070,0.00,VWS V13.01,2013-01-28 19:07:00,
2013-01-28 14:12:00,27.9,15.1,30.18,SSW,207,1.0,6.0,58,0.00,,OVC070,0.00,VWS V13.01,2013-01-28 19:12:00,
2013-01-28 14:17:00,27.6,16.3,30.18,SW,217,2.0,6.0,62,0.00,,OVC070,0.00,VWS V13.01,2013-01-28 19:17:00,
2013-01-28 14:23:00,27.2,16.3,30.18,West,265,0.0,6.0,63,0.00,,OVC070,0.00,VWS V13.01,2013-01-28 19:23:00,
2013-01-28 14:28:00,27.1,16.6,30.18,WSW,245,0.0,6.0,64,0.00,,OVC070,0.00,VWS V13.01,2013-01-28 19:28:00,
2013-01-28 14:33:00,27.2,17.4,30.18,West,264,2.0,4.0,66,0.00,,OVC070,0.00,VWS V13.01,2013-01-28 19:33:00,
2013-01-28 14:38:00,27.4,17.9,30.18,SW,236,1.0,4.0,67,0.00,,OVC070,0.00,VWS V13.01,2013-01-28 19:38:00,
2013-01-28 14:43:00,27.2,18.0,30.18,West,261,1.0,4.0,68,0.00,,OVC070,0.00,VWS V13.01,2013-01-28 19:43:00,
2013-01-28 14:48:00,26.9,17.8,30.17,West,266,0.0,4.0,68,0.00,,OVC055,0.00,VWS V13.01,2013-01-28 19:48:00,
2013-01-28 14:53:00,26.6,17.5,30.17,SSW,211,0.0,5.0,68,0.00,,OVC055,0.00,VWS V13.01,2013-01-28 19:53:00,
2013-01-28 14:58:00,26.6,17.1,30.17,SSW,211,0.0,5.0,67,0.00,,OVC055,0.00,VWS V13.01,2013-01-28 19:58:00,
2013-01-28 15:03:00,26.4,16.9,30.16,SSW,211,0.0,2.0,67,0.00,,,0.00,VWS V13.01,2013-01-28 20:03:00,
2013-01-28 15:08:00,26.2,16.4,30.16,SSW,210,2.0,2.0,66,0.00,,,0.00,VWS V13.01,2013-01-28 20:08:00,
2013-01-28 15:13:00,26.2,16.1,30.16,SSW,210,0.0,2.0,65,0.00,,,0.00,VWS V13.01,2013-01-28 20:13:00,
2013-01-28 15:18:00,26.1,16.0,30.16,SSW,210,0.0,2.0,65,0.00,,,0.00,VWS V13.01,2013-01-28 20:18:00,
2013-01-28 15:23:00,26.0,15.5,30.16,SSW,210,0.0,2.0,64,0.00,,,0.00,VWS V13.01,2013-01-28 20:23:00,
2013-01-28 15:28:00,25.9,15.1,30.16,SSW,210,0.0,2.0,63,0.00,,,0.00,VWS V13.01,2013-01-28 20:28:00,
2013-01-28 15:33:00,25.9,14.7,30.15,SSW,210,0.0,0.0,62,0.00,,OVC055,0.00,VWS V13.01,2013-01-28 20:33:00,
2013-01-28 15:38:00,25.8,14.6,30.15,SSW,210,0.0,0.0,62,0.00,,OVC055,0.00,VWS V13.01,2013-01-28 20:38:00,
2013-01-28 15:43:00,25.7,14.1,30.15,SSW,210,0.0,0.0,61,0.00,,OVC055,0.00,VWS V13.01,2013-01-28 20:43:00,
2013-01-28 15:48:00,25.7,13.8,30.15,SSW,210,0.0,0.0,60,0.00,,,0.00,VWS V13.01,2013-01-28 20:48:00,
2013-01-28 15:53:00,25.6,13.7,30.15,SSW,210,0.0,0.0,60,0.00,,,0.00,VWS V13.01,2013-01-28 20:53:00,
2013-01-28 15:58:00,25.6,13.7,30.15,SSW,210,0.0,0.0,60,0.00,,,0.00,VWS V13.01,2013-01-28 20:58:00,
2013-01-28 16:03:00,25.6,13.7,30.16,SSW,210,0.0,0.0,60,0.00,,,0.00,VWS V13.01,2013-01-28 21:03:00,
2013-01-28 16:08:00,25.6,13.3,30.15,SSW,210,0.0,0.0,59,0.00,,,0.00,VWS V13.01,2013-01-28 21:08:00,
2013-01-28 16:13:00,25.5,13.2,30.15,SSW,210,0.0,0.0,59,0.00,,,0.00,VWS V13.01,2013-01-28 21:13:00,
2013-01-28 16:18:00,25.5,13.2,30.15,SSW,210,0.0,0.0,59,0.00,,,0.00,VWS V13.01,2013-01-28 21:18:00,
2013-01-28 16:24:00,25.5,13.2,30.15,SSW,210,0.0,0.0,59,0.00,,,0.00,VWS V13.01,2013-01-28 21:24:00,
2013-01-28 16:29:00,25.4,13.1,30.14,SSW,210,0.0,1.0,59,0.00,,,0.00,VWS V13.01,2013-01-28 21:29:00,
2013-01-28 16:34:00,25.4,12.7,30.13,SSW,210,0.0,1.0,58,0.00,,,0.00,VWS V13.01,2013-01-28 21:34:00,
2013-01-28 16:39:00,25.3,12.6,30.13,SSW,210,0.0,1.0,58,0.00,,,0.00,VWS V13.01,2013-01-28 21:39:00,
2013-01-28 16:44:00,25.2,12.5,30.12,SSW,210,0.0,1.0,58,0.00,,,0.00,VWS V13.01,2013-01-28 21:44:00,
2013-01-28 16:49:00,25.2,12.1,30.12,SSW,210,0.0,1.0,57,0.00,,,0.00,VWS V13.01,2013-01-28 21:49:00,
2013-01-28 16:54:00,25.1,12.0,30.11,SSW,210,0.0,1.0,57,0.00,,,0.00,VWS V13.01,2013-01-28 21:54:00,
2013-01-28 16:59:00,25.1,12.0,30.11,SE,133,0.0,1.0,57,0.00,,,0.00,VWS V13.01,2013-01-28 21:59:00,
2013-01-28 17:04:00,25.0,11.9,30.11,SE,134,0.0,0.0,57,0.00,,,0.00,VWS V13.01,2013-01-28 22:04:00,
2013-01-28 17:09:00,24.9,11.4,30.11,SE,145,0.0,0.0,56,0.00,,,0.00,VWS V13.01,2013-01-28 22:09:00,
2013-01-28 17:14:00,24.9,11.4,30.11,SE,145,0.0,0.0,56,0.00,,,0.00,VWS V13.01,2013-01-28 22:14:00,
2013-01-28 17:19:00,24.9,11.4,30.10,SE,145,0.0,0.0,56,0.00,,,0.00,VWS V13.01,2013-01-28 22:19:00,
2013-01-28 17:24:00,24.9,11.4,30.10,SE,145,0.0,0.0,56,0.00,,,0.00,VWS V13.01,2013-01-28 22:24:00,
2013-01-28 17:29:00,24.9,11.0,30.09,SE,145,0.0,0.0,55,0.00,,,0.00,VWS V13.01,2013-01-28 22:29:00,
2013-01-28 17:35:00,24.8,10.9,30.09,SE,145,0.0,0.0,55,0.00,,,0.00,VWS V13.01,2013-01-28 22:35:00,
2013-01-28 17:40:00,24.9,11.0,30.09,SE,145,0.0,0.0,55,0.00,,,0.00,VWS V13.01,2013-01-28 22:40:00,
2013-01-28 17:45:00,24.9,11.0,30.08,SE,145,0.0,0.0,55,0.00,,,0.00,VWS V13.01,2013-01-28 22:45:00,
2013-01-28 17:50:00,24.9,11.0,30.08,SE,145,0.0,0.0,55,0.00,,,0.00,VWS V13.01,2013-01-28 22:50:00,
2013-01-28 17:55:00,24.9,10.6,30.09,SE,145,0.0,0.0,54,0.00,,,0.00,VWS V13.01,2013-01-28 22:55:00,
2013-01-28 18:00:00,24.9,10.6,30.08,SE,145,0.0,0.0,54,0.00,,,0.00,VWS V13.01,2013-01-28 23:00:00,
2013-01-28 18:05:00,25.0,10.7,30.08,SE,145,0.0,0.0,54,0.00,,,0.00,VWS V13.01,2013-01-28 23:05:00,
2013-01-28 18:10:00,24.9,10.6,30.08,SE,145,0.0,0.0,54,0.00,,,0.00,VWS V13.01,2013-01-28 23:10:00,
2013-01-28 18:15:00,24.9,10.6,30.08,SE,145,0.0,0.0,54,0.00,,,0.00,VWS V13.01,2013-01-28 23:15:00,
2013-01-28 18:20:00,25.0,10.7,30.07,SE,145,0.0,0.0,54,0.00,,,0.00,VWS V13.01,2013-01-28 23:20:00,
2013-01-28 18:25:00,24.9,10.6,30.07,SE,145,0.0,0.0,54,0.00,,,0.00,VWS V13.01,2013-01-28 23:25:00,
2013-01-28 18:30:00,25.0,10.7,30.07,SE,145,0.0,0.0,54,0.00,,,0.00,VWS V13.01,2013-01-28 23:30:00,
2013-01-28 18:35:00,25.0,10.3,30.07,SE,145,0.0,0.0,53,0.00,,,0.00,VWS V13.01,2013-01-28 23:35:00,
2013-01-28 18:40:00,25.0,10.3,30.08,SE,145,0.0,0.0,53,0.00,,,0.00,VWS V13.01,2013-01-28 23:40:00,
2013-01-28 18:45:00,25.1,10.4,30.08,SE,145,0.0,0.0,53,0.00,,,0.00,VWS V13.01,2013-01-28 23:45:00,
2013-01-28 18:50:00,25.1,10.4,30.08,SE,145,0.0,0.0,53,0.00,,,0.00,VWS V13.01,2013-01-28 23:50:00,
2013-01-28 18:55:00,25.1,10.4,30.07,SE,145,0.0,0.0,53,0.00,,,0.00,VWS V13.01,2013-01-28 23:55:00,
2013-01-28 19:00:00,25.2,10.5,30.06,SE,145,0.0,0.0,53,0.00,,,0.00,VWS V13.01,2013-01-29 00:00:00,
2013-01-28 19:05:00,25.2,10.5,30.05,SE,145,0.0,0.0,53,0.00,,,0.00,VWS V13.01,2013-01-29 00:05:00,
2013-01-28 19:10:00,25.2,10.5,30.06,SE,145,0.0,0.0,53,0.00,,,0.00,VWS V13.01,2013-01-29 00:10:00,
2013-01-28 19:15:00,25.2,10.5,30.06,SE,145,0.0,0.0,53,0.00,,,0.00,VWS V13.01,2013-01-29 00:15:00,
2013-01-28 19:20:00,25.2,10.5,30.06,SE,145,0.0,0.0,53,0.00,,,0.00,VWS V13.01,2013-01-29 00:20:00,
2013-01-28 19:25:00,25.2,10.5,30.07,SE,145,0.0,0.0,53,0.00,,,0.00,VWS V13.01,2013-01-29 00:25:00,
2013-01-28 19:30:00,25.3,10.1,30.08,SE,145,0.0,0.0,52,0.00,,,0.00,VWS V13.01,2013-01-29 00:30:00,
2013-01-28 19:35:00,25.4,10.2,30.08,NE,53,0.0,0.0,52,0.00,,,0.00,VWS V13.01,2013-01-29 00:35:00,
2013-01-28 19:40:00,25.4,10.2,30.07,NE,53,0.0,1.0,52,0.00,,,0.00,VWS V13.01,2013-01-29 00:40:00,
2013-01-28 19:45:00,25.4,10.2,30.06,NE,53,0.0,1.0,52,0.00,,,0.00,VWS V13.01,2013-01-29 00:45:00,
2013-01-28 19:50:00,25.3,10.1,30.07,NE,53,0.0,1.0,52,0.00,,,0.00,VWS V13.01,2013-01-29 00:50:00,
2013-01-28 19:55:00,25.4,10.2,30.07,NE,53,0.0,1.0,52,0.00,,,0.00,VWS V13.01,2013-01-29 00:55:00,
2013-01-28 20:00:00,25.4,10.2,30.06,NE,53,0.0,1.0,52,0.00,,,0.00,VWS V13.01,2013-01-29 01:00:00,
2013-01-28 20:05:00,25.3,10.1,30.07,NE,53,0.0,0.0,52,0.00,,,0.00,VWS V13.01,2013-01-29 01:05:00,
2013-01-28 20:10:00,25.3,10.1,30.05,NE,53,0.0,0.0,52,0.00,,,0.00,VWS V13.01,2013-01-29 01:10:00,
2013-01-28 20:15:00,25.3,10.1,30.04,NE,53,0.0,0.0,52,0.00,,,0.00,VWS V13.01,2013-01-29 01:15:00,
2013-01-28 20:20:00,25.3,10.1,30.04,NE,53,0.0,0.0,52,0.00,,,0.00,VWS V13.01,2013-01-29 01:20:00,
2013-01-28 20:25:00,25.4,10.2,30.05,NE,53,0.0,0.0,52,0.00,,,0.00,VWS V13.01,2013-01-29 01:25:00,
2013-01-28 20:30:00,25.4,10.2,30.03,NE,53,0.0,0.0,52,0.00,,,0.00,VWS V13.01,2013-01-29 01:30:00,
2013-01-28 20:36:00,25.5,10.3,30.03,NE,53,0.0,0.0,52,0.00,,,0.00,VWS V13.01,2013-01-29 01:36:00,
2013-01-28 20:41:00,25.5,10.3,30.04,NE,53,0.0,0.0,52,0.00,,,0.00,VWS V13.01,2013-01-29 01:41:00,
2013-01-28 20:46:00,25.6,10.4,30.03,NE,53,0.0,0.0,52,0.00,,,0.00,VWS V13.01,2013-01-29 01:46:00,
2013-01-28 20:51:00,25.6,10.0,30.03,NE,53,0.0,0.0,51,0.00,,,0.00,VWS V13.01,2013-01-29 01:51:00,
2013-01-28 20:56:00,25.7,10.1,30.03,NE,53,0.0,0.0,51,0.00,,,0.00,VWS V13.01,2013-01-29 01:56:00,
2013-01-28 21:01:00,25.7,10.1,30.02,NE,53,0.0,0.0,51,0.00,,,0.00,VWS V13.01,2013-01-29 02:01:00,
2013-01-28 21:06:00,25.7,10.1,30.01,NE,53,0.0,0.0,51,0.00,,,0.00,VWS V13.01,2013-01-29 02:06:00,
2013-01-28 21:11:00,25.7,10.1,30.01,NE,53,0.0,0.0,51,0.00,,,0.00,VWS V13.01,2013-01-29 02:11:00,
2013-01-28 21:16:00,25.8,10.2,30.01,NE,53,0.0,0.0,51,0.00,,,0.00,VWS V13.01,2013-01-29 02:16:00,
2013-01-28 21:21:00,25.8,10.2,30.01,NE,53,0.0,0.0,51,0.00,,,0.00,VWS V13.01,2013-01-29 02:21:00,
2013-01-28 21:26:00,25.9,10.3,30.01,NE,53,0.0,0.0,51,0.00,,,0.00,VWS V13.01,2013-01-29 02:26:00,
2013-01-28 21:31:00,25.9,10.3,30.01,NE,53,0.0,0.0,51,0.00,,,0.00,VWS V13.01,2013-01-29 02:31:00,
2013-01-28 21:36:00,26.0,10.4,30.01,NE,53,0.0,0.0,51,0.00,,,0.00,VWS V13.01,2013-01-29 02:36:00,
2013-01-28 21:41:00,26.0,10.4,30.00,NE,53,0.0,0.0,51,0.00,,,0.00,VWS V13.01,2013-01-29 02:41:00,
2013-01-28 21:46:00,26.0,10.4,30.00,NE,53,0.0,0.0,51,0.00,,,0.00,VWS V13.01,2013-01-29 02:46:00,
2013-01-28 21:51:00,26.0,10.4,30.01,NE,53,0.0,0.0,51,0.00,,,0.00,VWS V13.01,2013-01-29 02:51:00,
2013-01-28 21:56:00,26.0,10.4,30.00,NE,53,0.0,1.0,51,0.00,,,0.00,VWS V13.01,2013-01-29 02:56:00,
2013-01-28 22:01:00,26.0,10.4,30.00,NE,53,0.0,0.0,51,0.00,,,0.00,VWS V13.01,2013-01-29 03:01:00,
2013-01-28 22:06:00,26.0,10.4,30.00,NE,53,0.0,0.0,51,0.00,,,0.00,VWS V13.01,2013-01-29 03:06:00,
2013-01-28 22:11:00,26.0,10.4,30.00,NE,53,0.0,0.0,51,0.00,,,0.00,VWS V13.01,2013-01-29 03:11:00,
2013-01-28 22:16:00,25.9,10.3,30.00,NE,53,0.0,0.0,51,0.00,,,0.00,VWS V13.01,2013-01-29 03:16:00,
2013-01-28 22:21:00,25.9,10.3,30.00,NE,53,0.0,0.0,51,0.00,,,0.00,VWS V13.01,2013-01-29 03:21:00,
2013-01-28 22:27:00,25.8,10.2,30.00,NE,53,0.0,0.0,51,0.00,,,0.00,VWS V13.01,2013-01-29 03:27:00,
2013-01-28 22:32:00,25.8,10.2,30.00,NE,53,0.0,0.0,51,0.00,,,0.00,VWS V13.01,2013-01-29 03:32:00,
2013-01-28 22:37:00,25.8,10.2,30.00,NE,53,0.0,0.0,51,0.00,,,0.00,VWS V13.01,2013-01-29 03:37:00,
2013-01-28 22:42:00,25.8,10.2,30.00,NE,53,0.0,1.0,51,0.00,,,0.00,VWS V13.01,2013-01-29 03:42:00,
2013-01-28 22:47:00,25.7,10.1,30.00,NE,53,0.0,1.0,51,0.00,,,0.00,VWS V13.01,2013-01-29 03:47:00,
2013-01-28 22:52:00,25.7,10.1,30.00,NE,53,0.0,1.0,51,0.00,,,0.00,VWS V13.01,2013-01-29 03:52:00,
2013-01-28 22:57:00,25.7,10.1,30.00,NE,53,0.0,1.0,51,0.00,,,0.00,VWS V13.01,2013-01-29 03:57:00,
2013-01-28 23:02:00,25.8,10.2,30.00,NE,53,0.0,0.0,51,0.00,,,0.00,VWS V13.01,2013-01-29 04:02:00,
2013-01-28 23:07:00,25.8,10.2,30.00,NE,53,0.0,0.0,51,0.00,,,0.00,VWS V13.01,2013-01-29 04:07:00,
2013-01-28 23:12:00,25.8,10.2,30.00,NNW,329,0.0,1.0,51,0.00,,,0.00,VWS V13.01,2013-01-29 04:12:00,
2013-01-28 23:17:00,25.8,10.2,30.00,North,350,0.0,1.0,51,0.00,,,0.00,VWS V13.01,2013-01-29 04:17:00,
2013-01-28 23:22:00,25.7,10.1,30.00,North,350,0.0,1.0,51,0.00,,,0.00,VWS V13.01,2013-01-29 04:22:00,
2013-01-28 23:27:00,25.7,10.1,30.00,North,350,0.0,1.0,51,0.00,,,0.00,VWS V13.01,2013-01-29 04:27:00,
2013-01-28 23:32:00,25.6,10.0,29.99,North,350,0.0,0.0,51,0.00,,,0.00,VWS V13.01,2013-01-29 04:32:00,
2013-01-28 23:37:00,25.6,10.0,29.99,North,350,0.0,0.0,51,0.00,,,0.00,VWS V13.01,2013-01-29 04:37:00,
2013-01-28 23:42:00,25.6,10.0,29.99,North,350,0.0,0.0,51,0.00,,,0.00,VWS V13.01,2013-01-29 04:42:00,
2013-01-28 23:47:00,25.6,10.0,29.99,North,350,0.0,0.0,51,0.00,,,0.00,VWS V13.01,2013-01-29 04:47:00,
2013-01-28 23:52:00,25.6,10.0,30.00,North,350,0.0,0.0,51,0.00,,,0.00,VWS V13.01,2013-01-29 04:52:00,
2013-01-28 23:57:00,25.5,9.9,30.00,North,350,0.0,0.0,51,0.00,,,0.00,VWS V13.01,2013-01-29 04:57:00,